sensor_id;sensor_type;location;lat;lon;timestamp;pressure;altitude;pressure_sealevel;temperature;humidity
8039;BME280;4062;49.844;8.120;2023-08-08T00:00:16;99373.25;;;18.13;58.85
8039;BME280;4062;49.844;8.120;2023-08-08T00:02:18;99379.47;;;18.14;59.16
8039;BME280;4062;49.844;8.120;2023-08-08T00:04:19;99383.00;;;18.15;58.99
8039;BME280;4062;49.844;8.120;2023-08-08T00:06:21;99368.00;;;18.12;59.02
8039;BME280;4062;49.844;8.120;2023-08-08T00:08:22;99365.22;;;18.13;58.98
8039;BME280;4062;49.844;8.120;2023-08-08T00:10:23;99378.59;;;18.13;58.99
8039;BME280;4062;49.844;8.120;2023-08-08T00:12:25;99370.59;;;18.13;58.98
8039;BME280;4062;49.844;8.120;2023-08-08T00:14:26;99376.81;;;18.14;58.99
8039;BME280;4062;49.844;8.120;2023-08-08T00:16:28;99369.72;;;18.13;59.18
8039;BME280;4062;49.844;8.120;2023-08-08T00:18:29;99367.06;;;18.13;59.09
8039;BME280;4062;49.844;8.120;2023-08-08T00:20:30;99376.88;;;18.12;59.17
8039;BME280;4062;49.844;8.120;2023-08-08T00:22:32;99371.53;;;18.12;59.00
8039;BME280;4062;49.844;8.120;2023-08-08T00:24:34;99370.59;;;18.13;58.98
8039;BME280;4062;49.844;8.120;2023-08-08T00:26:36;99364.38;;;18.13;58.99
8039;BME280;4062;49.844;8.120;2023-08-08T00:28:37;99369.72;;;18.13;58.99
8039;BME280;4062;49.844;8.120;2023-08-08T00:30:38;99367.06;;;18.13;59.01
8039;BME280;4062;49.844;8.120;2023-08-08T00:32:40;99363.50;;;18.12;59.06
8039;BME280;4062;49.844;8.120;2023-08-08T00:34:41;99361.72;;;18.13;59.02
8039;BME280;4062;49.844;8.120;2023-08-08T00:36:42;99359.88;;;18.13;59.04
8039;BME280;4062;49.844;8.120;2023-08-08T00:38:44;99356.38;;;18.13;59.12
8039;BME280;4062;49.844;8.120;2023-08-08T00:40:45;99353.69;;;18.13;59.09
8039;BME280;4062;49.844;8.120;2023-08-08T00:42:46;99360.84;;;18.12;58.85
8039;BME280;4062;49.844;8.120;2023-08-08T00:44:48;99362.66;;;18.12;58.98
8039;BME280;4062;49.844;8.120;2023-08-08T00:46:49;99370.59;;;18.13;59.05
8039;BME280;4062;49.844;8.120;2023-08-08T00:48:54;99360.84;;;18.12;59.11
8039;BME280;4062;49.844;8.120;2023-08-08T00:50:56;99351.97;;;18.12;59.14
8039;BME280;4062;49.844;8.120;2023-08-08T00:52:57;99357.31;;;18.12;59.18
8039;BME280;4062;49.844;8.120;2023-08-08T00:54:59;99363.50;;;18.12;58.94
8039;BME280;4062;49.844;8.120;2023-08-08T00:57:01;99361.72;;;18.13;58.98
8039;BME280;4062;49.844;8.120;2023-08-08T00:59:03;99364.38;;;18.13;58.94
8039;BME280;4062;49.844;8.120;2023-08-08T01:01:05;99360.84;;;18.12;58.94
8039;BME280;4062;49.844;8.120;2023-08-08T01:03:07;99358.16;;;18.12;58.98
8039;BME280;4062;49.844;8.120;2023-08-08T01:05:10;99358.16;;;18.12;59.18
8039;BME280;4062;49.844;8.120;2023-08-08T01:09:33;99361.72;;;18.13;59.07
8039;BME280;4062;49.844;8.120;2023-08-08T01:11:38;99355.47;;;18.12;58.96
8039;BME280;4062;49.844;8.120;2023-08-08T01:13:40;99355.47;;;18.12;58.98
8039;BME280;4062;49.844;8.120;2023-08-08T01:15:42;99358.25;;;18.11;59.18
8039;BME280;4062;49.844;8.120;2023-08-08T01:17:46;99353.75;;;18.11;59.01
8039;BME280;4062;49.844;8.120;2023-08-08T01:19:48;99351.09;;;18.11;59.17
8039;BME280;4062;49.844;8.120;2023-08-08T01:21:53;99351.97;;;18.12;59.07
8039;BME280;4062;49.844;8.120;2023-08-08T01:24:13;99349.28;;;18.12;59.21
8039;BME280;4062;49.844;8.120;2023-08-08T01:26:15;99351.09;;;18.11;59.25
8039;BME280;4062;49.844;8.120;2023-08-08T01:28:21;99356.44;;;18.11;59.02
8039;BME280;4062;49.844;8.120;2023-08-08T01:30:23;99349.28;;;18.12;59.14
8039;BME280;4062;49.844;8.120;2023-08-08T01:32:24;99351.97;;;18.12;59.13
8039;BME280;4062;49.844;8.120;2023-08-08T01:34:26;99354.63;;;18.12;59.00
8039;BME280;4062;49.844;8.120;2023-08-08T01:36:42;99345.75;;;18.11;58.93
8039;BME280;4062;49.844;8.120;2023-08-08T01:38:55;99351.09;;;18.11;59.00
8039;BME280;4062;49.844;8.120;2023-08-08T01:41:01;99348.41;;;18.11;59.01
8039;BME280;4062;49.844;8.120;2023-08-08T01:43:06;99344.88;;;18.11;58.96
8039;BME280;4062;49.844;8.120;2023-08-08T01:45:08;99350.25;;;18.11;59.15
8039;BME280;4062;49.844;8.120;2023-08-08T01:47:10;99351.09;;;18.11;59.11
8039;BME280;4062;49.844;8.120;2023-08-08T01:49:11;99345.75;;;18.11;58.95
8039;BME280;4062;49.844;8.120;2023-08-08T01:51:13;99350.25;;;18.11;58.94
8039;BME280;4062;49.844;8.120;2023-08-08T01:53:14;99347.56;;;18.11;58.97
8039;BME280;4062;49.844;8.120;2023-08-08T01:55:15;99351.09;;;18.11;58.88
8039;BME280;4062;49.844;8.120;2023-08-08T01:57:18;99352.91;;;18.11;58.87
8039;BME280;4062;49.844;8.120;2023-08-08T01:59:19;99350.25;;;18.11;58.87
8039;BME280;4062;49.844;8.120;2023-08-08T02:01:21;99348.41;;;18.11;58.99
8039;BME280;4062;49.844;8.120;2023-08-08T02:03:22;99344.88;;;18.11;59.18
8039;BME280;4062;49.844;8.120;2023-08-08T02:05:23;99341.34;;;18.10;59.03
8039;BME280;4062;49.844;8.120;2023-08-08T02:07:24;99339.53;;;18.11;59.15
8039;BME280;4062;49.844;8.120;2023-08-08T02:09:26;99341.34;;;18.10;59.04
8039;BME280;4062;49.844;8.120;2023-08-08T02:11:28;99335.97;;;18.10;59.14
8039;BME280;4062;49.844;8.120;2023-08-08T02:13:29;99338.66;;;18.10;58.94
8039;BME280;4062;49.844;8.120;2023-08-08T02:15:31;99332.38;;;18.11;59.04
8039;BME280;4062;49.844;8.120;2023-08-08T02:17:33;99332.38;;;18.11;59.18
8039;BME280;4062;49.844;8.120;2023-08-08T02:19:34;99335.03;;;18.11;58.85
8039;BME280;4062;49.844;8.120;2023-08-08T02:21:35;99334.19;;;18.11;59.08
8039;BME280;4062;49.844;8.120;2023-08-08T02:23:37;99331.53;;;18.11;59.19
8039;BME280;4062;49.844;8.120;2023-08-08T02:25:38;99331.53;;;18.11;59.00
8039;BME280;4062;49.844;8.120;2023-08-08T02:29:44;99340.38;;;18.11;59.04
8039;BME280;4062;49.844;8.120;2023-08-08T02:31:46;99335.97;;;18.10;59.00
8039;BME280;4062;49.844;8.120;2023-08-08T02:33:51;99327.97;;;18.10;58.97
8039;BME280;4062;49.844;8.120;2023-08-08T02:35:52;99333.31;;;18.10;59.09
8039;BME280;4062;49.844;8.120;2023-08-08T02:37:53;99330.63;;;18.10;58.90
8039;BME280;4062;49.844;8.120;2023-08-08T02:39:55;99327.97;;;18.10;59.12
8039;BME280;4062;49.844;8.120;2023-08-08T02:41:56;99327.97;;;18.10;59.17
8039;BME280;4062;49.844;8.120;2023-08-08T02:43:58;99331.53;;;18.11;59.09
8039;BME280;4062;49.844;8.120;2023-08-08T02:46:01;99324.34;;;18.11;59.12
8039;BME280;4062;49.844;8.120;2023-08-08T02:48:02;99321.78;;;18.10;59.03
8039;BME280;4062;49.844;8.120;2023-08-08T02:50:04;99322.63;;;18.10;59.01
8039;BME280;4062;49.844;8.120;2023-08-08T02:52:06;99326.16;;;18.11;59.20
8039;BME280;4062;49.844;8.120;2023-08-08T02:54:09;99330.63;;;18.10;59.04
8039;BME280;4062;49.844;8.120;2023-08-08T02:56:13;99330.63;;;18.10;59.15
8039;BME280;4062;49.844;8.120;2023-08-08T02:58:17;99327.13;;;18.10;59.23
8039;BME280;4062;49.844;8.120;2023-08-08T03:00:19;99319.09;;;18.10;59.14
8039;BME280;4062;49.844;8.120;2023-08-08T03:02:24;99323.59;;;18.09;59.02
8039;BME280;4062;49.844;8.120;2023-08-08T03:04:26;99319.94;;;18.10;59.10
8039;BME280;4062;49.844;8.120;2023-08-08T03:06:27;99321.78;;;18.10;59.09
8039;BME280;4062;49.844;8.120;2023-08-08T03:08:30;99321.78;;;18.10;59.03
8039;BME280;4062;49.844;8.120;2023-08-08T03:10:32;99319.94;;;18.10;59.12
8039;BME280;4062;49.844;8.120;2023-08-08T03:12:34;99319.09;;;18.10;59.11
8039;BME280;4062;49.844;8.120;2023-08-08T03:14:35;99319.09;;;18.10;59.21
8039;BME280;4062;49.844;8.120;2023-08-08T03:16:38;99318.25;;;18.09;59.21
8039;BME280;4062;49.844;8.120;2023-08-08T03:18:42;99312.91;;;18.09;58.94
8039;BME280;4062;49.844;8.120;2023-08-08T03:20:43;99314.69;;;18.09;59.15
8039;BME280;4062;49.844;8.120;2023-08-08T03:22:44;99311.06;;;18.10;58.96
8039;BME280;4062;49.844;8.120;2023-08-08T03:24:46;99308.41;;;18.10;59.28
8039;BME280;4062;49.844;8.120;2023-08-08T03:26:48;99306.56;;;18.10;59.09
8039;BME280;4062;49.844;8.120;2023-08-08T03:28:50;99308.41;;;18.10;59.07
8039;BME280;4062;49.844;8.120;2023-08-08T03:30:56;99312.91;;;18.09;59.03
8039;BME280;4062;49.844;8.120;2023-08-08T03:32:58;99320.03;;;18.09;59.11
8039;BME280;4062;49.844;8.120;2023-08-08T03:34:59;99324.44;;;18.10;59.08
8039;BME280;4062;49.844;8.120;2023-08-08T03:37:01;99318.25;;;18.09;59.09
8039;BME280;4062;49.844;8.120;2023-08-08T03:39:03;99316.41;;;18.10;59.15
8039;BME280;4062;49.844;8.120;2023-08-08T03:41:06;99324.44;;;18.10;59.02
8039;BME280;4062;49.844;8.120;2023-08-08T03:43:07;99325.38;;;18.09;59.21
8039;BME280;4062;49.844;8.120;2023-08-08T03:45:09;99328.94;;;18.09;59.17
8039;BME280;4062;49.844;8.120;2023-08-08T03:47:14;99327.13;;;18.10;59.20
8039;BME280;4062;49.844;8.120;2023-08-08T03:49:16;99319.09;;;18.10;59.09
8039;BME280;4062;49.844;8.120;2023-08-08T03:51:17;99320.91;;;18.09;59.03
8039;BME280;4062;49.844;8.120;2023-08-08T03:53:18;99321.78;;;18.10;59.19
8039;BME280;4062;49.844;8.120;2023-08-08T03:55:20;99319.19;;;18.08;59.04
8039;BME280;4062;49.844;8.120;2023-08-08T03:57:22;99325.38;;;18.09;59.01
8039;BME280;4062;49.844;8.120;2023-08-08T03:59:23;99323.59;;;18.09;59.05
8039;BME280;4062;49.844;8.120;2023-08-08T04:01:24;99326.28;;;18.09;59.00
8039;BME280;4062;49.844;8.120;2023-08-08T04:03:25;99314.69;;;18.09;59.35
8039;BME280;4062;49.844;8.120;2023-08-08T04:05:27;99320.91;;;18.09;59.00
8039;BME280;4062;49.844;8.120;2023-08-08T04:07:28;99318.25;;;18.09;59.16
8039;BME280;4062;49.844;8.120;2023-08-08T04:09:29;99317.38;;;18.09;59.00
8039;BME280;4062;49.844;8.120;2023-08-08T04:11:31;99320.91;;;18.09;59.50
8039;BME280;4062;49.844;8.120;2023-08-08T04:13:32;99315.56;;;18.09;59.07
8039;BME280;4062;49.844;8.120;2023-08-08T04:15:34;99316.53;;;18.08;59.02
8039;BME280;4062;49.844;8.120;2023-08-08T04:17:35;99314.69;;;18.09;59.00
8039;BME280;4062;49.844;8.120;2023-08-08T04:19:37;99318.25;;;18.09;59.17
8039;BME280;4062;49.844;8.120;2023-08-08T04:23:40;99318.25;;;18.09;58.92
8039;BME280;4062;49.844;8.120;2023-08-08T04:25:41;99325.38;;;18.09;59.08
8039;BME280;4062;49.844;8.120;2023-08-08T04:27:43;99325.38;;;18.09;59.18
8039;BME280;4062;49.844;8.120;2023-08-08T04:29:44;99330.72;;;18.09;59.00
8039;BME280;4062;49.844;8.120;2023-08-08T04:31:45;99328.94;;;18.09;58.91
8039;BME280;4062;49.844;8.120;2023-08-08T04:33:47;99326.28;;;18.09;59.34
8039;BME280;4062;49.844;8.120;2023-08-08T04:35:48;99322.72;;;18.09;59.14
8039;BME280;4062;49.844;8.120;2023-08-08T04:37:50;99333.41;;;18.09;59.23
8039;BME280;4062;49.844;8.120;2023-08-08T04:39:51;99327.22;;;18.08;59.21
8039;BME280;4062;49.844;8.120;2023-08-08T04:41:53;99323.66;;;18.08;59.24
8039;BME280;4062;49.844;8.120;2023-08-08T04:43:54;99325.38;;;18.09;59.13
8039;BME280;4062;49.844;8.120;2023-08-08T04:45:56;99321.88;;;18.08;59.20
8039;BME280;4062;49.844;8.120;2023-08-08T04:47:57;99322.72;;;18.09;59.21
8039;BME280;4062;49.844;8.120;2023-08-08T04:49:59;99319.19;;;18.08;59.09
8039;BME280;4062;49.844;8.120;2023-08-08T04:52:00;99321.88;;;18.08;59.08
8039;BME280;4062;49.844;8.120;2023-08-08T04:54:02;99326.28;;;18.09;59.01
8039;BME280;4062;49.844;8.120;2023-08-08T04:56:03;99321.88;;;18.08;59.09
8039;BME280;4062;49.844;8.120;2023-08-08T04:58:05;99312.03;;;18.09;59.16
8039;BME280;4062;49.844;8.120;2023-08-08T05:00:06;99319.19;;;18.08;59.02
8039;BME280;4062;49.844;8.120;2023-08-08T05:02:09;99321.88;;;18.08;59.10
8039;BME280;4062;49.844;8.120;2023-08-08T05:04:11;99320.03;;;18.09;59.11
8039;BME280;4062;49.844;8.120;2023-08-08T05:06:12;99318.31;;;18.08;59.05
8039;BME280;4062;49.844;8.120;2023-08-08T05:08:14;99321.00;;;18.08;59.08
8039;BME280;4062;49.844;8.120;2023-08-08T05:10:15;99325.38;;;18.09;59.18
8039;BME280;4062;49.844;8.120;2023-08-08T05:12:17;99319.19;;;18.08;59.24
8039;BME280;4062;49.844;8.120;2023-08-08T05:14:18;99314.78;;;18.07;59.19
8039;BME280;4062;49.844;8.120;2023-08-08T05:16:19;99321.88;;;18.08;59.42
8039;BME280;4062;49.844;8.120;2023-08-08T05:18:20;99320.03;;;18.09;59.09
8039;BME280;4062;49.844;8.120;2023-08-08T05:20:22;99321.00;;;18.08;59.05
8039;BME280;4062;49.844;8.120;2023-08-08T05:22:24;99315.63;;;18.08;59.14
8039;BME280;4062;49.844;8.120;2023-08-08T05:24:25;99314.78;;;18.07;59.22
8039;BME280;4062;49.844;8.120;2023-08-08T05:26:26;99315.63;;;18.08;59.08
8039;BME280;4062;49.844;8.120;2023-08-08T05:28:28;99308.50;;;18.08;59.18
8039;BME280;4062;49.844;8.120;2023-08-08T05:30:29;99313.84;;;18.08;58.91
8039;BME280;4062;49.844;8.120;2023-08-08T05:32:31;99311.19;;;18.08;59.27
8039;BME280;4062;49.844;8.120;2023-08-08T05:34:32;99304.94;;;18.08;59.10
8039;BME280;4062;49.844;8.120;2023-08-08T05:36:34;99311.19;;;18.08;59.22
8039;BME280;4062;49.844;8.120;2023-08-08T05:38:35;99298.75;;;18.07;59.10
8039;BME280;4062;49.844;8.120;2023-08-08T05:40:37;99308.50;;;18.08;59.01
8039;BME280;4062;49.844;8.120;2023-08-08T05:42:39;99302.28;;;18.08;59.06
8039;BME280;4062;49.844;8.120;2023-08-08T05:44:41;99305.81;;;18.08;58.91
8039;BME280;4062;49.844;8.120;2023-08-08T05:46:46;99305.81;;;18.08;59.04
8039;BME280;4062;49.844;8.120;2023-08-08T05:48:47;99302.28;;;18.08;58.97
8039;BME280;4062;49.844;8.120;2023-08-08T05:50:49;99306.69;;;18.09;59.01
8039;BME280;4062;49.844;8.120;2023-08-08T05:52:50;99309.34;;;18.09;59.21
8039;BME280;4062;49.844;8.120;2023-08-08T05:54:51;99311.19;;;18.08;59.08
8039;BME280;4062;49.844;8.120;2023-08-08T05:56:54;99307.63;;;18.08;59.17
8039;BME280;4062;49.844;8.120;2023-08-08T05:58:55;99306.78;;;18.07;59.15
8039;BME280;4062;49.844;8.120;2023-08-08T06:00:56;99306.78;;;18.07;59.03
8039;BME280;4062;49.844;8.120;2023-08-08T06:02:59;99304.09;;;18.07;59.10
8039;BME280;4062;49.844;8.120;2023-08-08T06:05:03;99313.84;;;18.08;58.98
8039;BME280;4062;49.844;8.120;2023-08-08T06:07:08;99299.59;;;18.08;59.09
8039;BME280;4062;49.844;8.120;2023-08-08T06:09:09;99311.19;;;18.08;59.21
8039;BME280;4062;49.844;8.120;2023-08-08T06:11:11;99302.28;;;18.08;59.19
8039;BME280;4062;49.844;8.120;2023-08-08T06:13:12;99308.50;;;18.08;59.16
8039;BME280;4062;49.844;8.120;2023-08-08T06:15:13;99304.94;;;18.08;59.33
8039;BME280;4062;49.844;8.120;2023-08-08T06:17:15;99302.28;;;18.08;59.02
8039;BME280;4062;49.844;8.120;2023-08-08T06:19:16;99303.16;;;18.08;59.27
8039;BME280;4062;49.844;8.120;2023-08-08T06:21:17;99306.69;;;18.09;58.98
8039;BME280;4062;49.844;8.120;2023-08-08T06:23:19;99312.03;;;18.09;58.98
8039;BME280;4062;49.844;8.120;2023-08-08T06:25:20;99306.69;;;18.09;59.21
8039;BME280;4062;49.844;8.120;2023-08-08T06:27:21;99308.50;;;18.08;59.03
8039;BME280;4062;49.844;8.120;2023-08-08T06:29:23;99308.50;;;18.08;59.07
8039;BME280;4062;49.844;8.120;2023-08-08T06:31:25;99303.16;;;18.08;59.20
8039;BME280;4062;49.844;8.120;2023-08-08T06:33:27;99308.50;;;18.08;59.07
8039;BME280;4062;49.844;8.120;2023-08-08T06:35:29;99307.63;;;18.08;59.03
8039;BME280;4062;49.844;8.120;2023-08-08T06:37:30;99311.19;;;18.08;59.05
8039;BME280;4062;49.844;8.120;2023-08-08T06:39:32;99311.19;;;18.08;59.17
8039;BME280;4062;49.844;8.120;2023-08-08T06:41:52;99303.16;;;18.08;59.16
8039;BME280;4062;49.844;8.120;2023-08-08T06:44:24;99304.00;;;18.09;59.02
8039;BME280;4062;49.844;8.120;2023-08-08T06:46:31;99303.16;;;18.08;59.18
8039;BME280;4062;49.844;8.120;2023-08-08T06:48:33;99304.94;;;18.08;59.05
8039;BME280;4062;49.844;8.120;2023-08-08T06:50:34;99306.69;;;18.09;59.01
8039;BME280;4062;49.844;8.120;2023-08-08T06:52:35;99305.81;;;18.08;59.00
8039;BME280;4062;49.844;8.120;2023-08-08T06:54:37;99307.63;;;18.08;59.02
8039;BME280;4062;49.844;8.120;2023-08-08T06:56:38;99304.00;;;18.09;59.02
8039;BME280;4062;49.844;8.120;2023-08-08T06:58:40;99303.16;;;18.08;59.20
8039;BME280;4062;49.844;8.120;2023-08-08T07:00:41;99305.81;;;18.08;58.97
8039;BME280;4062;49.844;8.120;2023-08-08T07:02:42;99306.69;;;18.09;59.24
8039;BME280;4062;49.844;8.120;2023-08-08T07:04:44;99312.03;;;18.09;59.08
8039;BME280;4062;49.844;8.120;2023-08-08T07:06:45;99301.31;;;18.09;59.13
8039;BME280;4062;49.844;8.120;2023-08-08T07:08:46;99298.66;;;18.09;59.18
8039;BME280;4062;49.844;8.120;2023-08-08T07:10:48;99299.53;;;18.09;59.17
8039;BME280;4062;49.844;8.120;2023-08-08T07:12:49;99306.69;;;18.09;59.20
8039;BME280;4062;49.844;8.120;2023-08-08T07:14:50;99306.69;;;18.09;59.28
8039;BME280;4062;49.844;8.120;2023-08-08T07:16:52;99310.22;;;18.09;59.17
8039;BME280;4062;49.844;8.120;2023-08-08T07:18:54;99298.66;;;18.09;58.95
8039;BME280;4062;49.844;8.120;2023-08-08T07:20:56;99311.94;;;18.10;59.04
8039;BME280;4062;49.844;8.120;2023-08-08T07:22:57;99303.06;;;18.10;59.01
8039;BME280;4062;49.844;8.120;2023-08-08T07:25:00;99304.88;;;18.09;59.07
8039;BME280;4062;49.844;8.120;2023-08-08T07:27:02;99306.56;;;18.10;59.14
8039;BME280;4062;49.844;8.120;2023-08-08T07:29:03;99301.22;;;18.10;59.19
8039;BME280;4062;49.844;8.120;2023-08-08T07:31:07;99303.91;;;18.10;59.14
8039;BME280;4062;49.844;8.120;2023-08-08T07:33:08;99302.09;;;18.11;58.97
8039;BME280;4062;49.844;8.120;2023-08-08T07:35:10;99304.78;;;18.11;59.19
8039;BME280;4062;49.844;8.120;2023-08-08T07:37:13;99301.22;;;18.10;59.13
8039;BME280;4062;49.844;8.120;2023-08-08T07:39:14;99302.09;;;18.11;59.20
8039;BME280;4062;49.844;8.120;2023-08-08T07:41:16;99308.31;;;18.11;59.15
8039;BME280;4062;49.844;8.120;2023-08-08T07:43:19;99299.44;;;18.11;59.16
8039;BME280;4062;49.844;8.120;2023-08-08T07:45:21;99302.09;;;18.11;59.14
8039;BME280;4062;49.844;8.120;2023-08-08T07:47:23;99304.88;;;18.09;59.11
8039;BME280;4062;49.844;8.120;2023-08-08T07:49:27;99302.09;;;18.11;59.14
8039;BME280;4062;49.844;8.120;2023-08-08T07:51:29;99308.31;;;18.11;59.07
8039;BME280;4062;49.844;8.120;2023-08-08T07:53:31;99303.91;;;18.10;58.97
8039;BME280;4062;49.844;8.120;2023-08-08T07:55:32;99302.00;;;18.12;59.09
8039;BME280;4062;49.844;8.120;2023-08-08T07:57:34;99303.75;;;18.13;59.06
8039;BME280;4062;49.844;8.120;2023-08-08T07:59:36;99302.78;;;18.15;59.06
8039;BME280;4062;49.844;8.120;2023-08-08T08:01:37;99305.56;;;18.13;59.14
8039;BME280;4062;49.844;8.120;2023-08-08T08:03:39;99301.94;;;18.14;58.87
8039;BME280;4062;49.844;8.120;2023-08-08T08:05:41;99299.34;;;18.12;58.77
8039;BME280;4062;49.844;8.120;2023-08-08T08:07:42;99300.22;;;18.13;59.19
8039;BME280;4062;49.844;8.120;2023-08-08T08:09:44;99301.16;;;18.12;59.13
8039;BME280;4062;49.844;8.120;2023-08-08T08:11:46;99294.00;;;18.12;58.92
8039;BME280;4062;49.844;8.120;2023-08-08T08:13:47;99297.59;;;18.11;59.14
8039;BME280;4062;49.844;8.120;2023-08-08T08:15:49;99298.50;;;18.12;58.89
8039;BME280;4062;49.844;8.120;2023-08-08T08:17:50;99294.88;;;18.13;59.12
8039;BME280;4062;49.844;8.120;2023-08-08T08:19:52;99291.31;;;18.12;59.11
8039;BME280;4062;49.844;8.120;2023-08-08T08:21:53;99290.47;;;18.12;59.12
8039;BME280;4062;49.844;8.120;2023-08-08T08:23:55;99292.25;;;18.11;59.08
8039;BME280;4062;49.844;8.120;2023-08-08T08:25:59;99295.81;;;18.12;58.82
8039;BME280;4062;49.844;8.120;2023-08-08T08:28:01;99296.66;;;18.12;59.06
8039;BME280;4062;49.844;8.120;2023-08-08T08:30:04;99294.00;;;18.12;58.94
8039;BME280;4062;49.844;8.120;2023-08-08T08:32:06;99294.00;;;18.12;58.95
8039;BME280;4062;49.844;8.120;2023-08-08T08:34:11;99289.53;;;18.13;58.93
8039;BME280;4062;49.844;8.120;2023-08-08T08:36:13;99277.09;;;18.12;58.87
8039;BME280;4062;49.844;8.120;2023-08-08T08:38:14;99285.03;;;18.13;58.80
8039;BME280;4062;49.844;8.120;2023-08-08T08:40:16;99278.81;;;18.13;58.93
8039;BME280;4062;49.844;8.120;2023-08-08T08:42:17;99281.50;;;18.13;58.95
8039;BME280;4062;49.844;8.120;2023-08-08T08:44:22;99275.22;;;18.14;58.94
8039;BME280;4062;49.844;8.120;2023-08-08T08:46:26;99277.88;;;18.14;58.91
8039;BME280;4062;49.844;8.120;2023-08-08T08:48:28;99282.25;;;18.15;59.06
8039;BME280;4062;49.844;8.120;2023-08-08T08:50:32;99281.41;;;18.15;58.86
8039;BME280;4062;49.844;8.120;2023-08-08T08:52:34;99275.22;;;18.14;58.94
8039;BME280;4062;49.844;8.120;2023-08-08T08:54:36;99282.34;;;18.13;58.98
8039;BME280;4062;49.844;8.120;2023-08-08T08:56:38;99284.06;;;18.15;58.90
8039;BME280;4062;49.844;8.120;2023-08-08T08:58:40;99276.06;;;18.15;58.88
8039;BME280;4062;49.844;8.120;2023-08-08T09:00:43;99284.94;;;18.15;58.92
8039;BME280;4062;49.844;8.120;2023-08-08T09:02:50;99281.41;;;18.15;58.90
8039;BME280;4062;49.844;8.120;2023-08-08T09:04:53;99278.72;;;18.15;58.98
8039;BME280;4062;49.844;8.120;2023-08-08T09:06:55;99282.25;;;18.15;58.94
8039;BME280;4062;49.844;8.120;2023-08-08T09:08:56;99281.41;;;18.15;58.90
8039;BME280;4062;49.844;8.120;2023-08-08T09:10:58;99279.56;;;18.15;58.94
8039;BME280;4062;49.844;8.120;2023-08-08T09:12:59;99278.72;;;18.15;59.09
8039;BME280;4062;49.844;8.120;2023-08-08T09:15:02;99281.41;;;18.15;59.07
8039;BME280;4062;49.844;8.120;2023-08-08T09:17:11;99282.25;;;18.15;59.03
8039;BME280;4062;49.844;8.120;2023-08-08T09:19:14;99287.59;;;18.15;59.13
8039;BME280;4062;49.844;8.120;2023-08-08T09:21:16;99287.59;;;18.15;59.11
8039;BME280;4062;49.844;8.120;2023-08-08T09:23:17;99282.25;;;18.15;58.86
8039;BME280;4062;49.844;8.120;2023-08-08T09:25:20;99272.53;;;18.14;58.91
8039;BME280;4062;49.844;8.120;2023-08-08T09:27:23;99284.06;;;18.15;58.87
8039;BME280;4062;49.844;8.120;2023-08-08T09:29:24;99271.66;;;18.13;58.89
8039;BME280;4062;49.844;8.120;2023-08-08T09:31:26;99276.91;;;18.15;59.00
8039;BME280;4062;49.844;8.120;2023-08-08T09:33:31;99273.38;;;18.15;59.13
8039;BME280;4062;49.844;8.120;2023-08-08T09:35:37;99265.34;;;18.15;58.94
8039;BME280;4062;49.844;8.120;2023-08-08T09:37:39;99266.22;;;18.15;59.13
8039;BME280;4062;49.844;8.120;2023-08-08T09:39:41;99263.53;;;18.15;59.10
8039;BME280;4062;49.844;8.120;2023-08-08T09:41:45;99263.53;;;18.15;59.11
8039;BME280;4062;49.844;8.120;2023-08-08T09:43:47;99267.94;;;18.16;59.21
8039;BME280;4062;49.844;8.120;2023-08-08T09:45:49;99272.44;;;18.16;59.03
8039;BME280;4062;49.844;8.120;2023-08-08T09:47:51;99269.75;;;18.16;58.96
8039;BME280;4062;49.844;8.120;2023-08-08T09:49:55;99267.09;;;18.16;59.12
8039;BME280;4062;49.844;8.120;2023-08-08T09:51:58;99263.53;;;18.15;59.09
8039;BME280;4062;49.844;8.120;2023-08-08T09:54:00;99275.22;;;18.14;59.06
8039;BME280;4062;49.844;8.120;2023-08-08T09:56:03;99267.94;;;18.16;58.86
8039;BME280;4062;49.844;8.120;2023-08-08T09:58:05;99272.44;;;18.16;58.92
8039;BME280;4062;49.844;8.120;2023-08-08T10:00:09;99267.09;;;18.16;59.12
8039;BME280;4062;49.844;8.120;2023-08-08T10:02:17;99269.75;;;18.16;59.23
8039;BME280;4062;49.844;8.120;2023-08-08T10:04:19;99269.75;;;18.16;59.04
8039;BME280;4062;49.844;8.120;2023-08-08T10:06:20;99263.53;;;18.15;59.04
8039;BME280;4062;49.844;8.120;2023-08-08T10:08:21;99261.75;;;18.16;59.03
8039;BME280;4062;49.844;8.120;2023-08-08T10:10:23;99261.75;;;18.16;58.86
8039;BME280;4062;49.844;8.120;2023-08-08T10:12:26;99267.94;;;18.16;59.05
8039;BME280;4062;49.844;8.120;2023-08-08T10:14:32;99264.41;;;18.16;59.00
8039;BME280;4062;49.844;8.120;2023-08-08T10:16:33;99259.06;;;18.16;59.00
8039;BME280;4062;49.844;8.120;2023-08-08T10:18:36;99265.25;;;18.16;58.84
8039;BME280;4062;49.844;8.120;2023-08-08T10:20:37;99258.97;;;18.17;59.02
8039;BME280;4062;49.844;8.120;2023-08-08T10:22:43;99254.56;;;18.16;59.08
8039;BME280;4062;49.844;8.120;2023-08-08T10:24:47;99259.06;;;18.16;58.80
8039;BME280;4062;49.844;8.120;2023-08-08T10:26:53;99258.97;;;18.17;59.01
8039;BME280;4062;49.844;8.120;2023-08-08T10:29:01;99253.63;;;18.17;58.98
8039;BME280;4062;49.844;8.120;2023-08-08T10:31:02;99257.16;;;18.18;58.88
8039;BME280;4062;49.844;8.120;2023-08-08T10:33:05;99247.41;;;18.17;58.79
8039;BME280;4062;49.844;8.120;2023-08-08T10:35:07;99258.03;;;18.18;59.01
8039;BME280;4062;49.844;8.120;2023-08-08T10:37:14;99244.75;;;18.17;58.92
8039;BME280;4062;49.844;8.120;2023-08-08T10:39:18;99252.78;;;18.17;58.99
8039;BME280;4062;49.844;8.120;2023-08-08T10:41:21;99263.47;;;18.17;59.19
8039;BME280;4062;49.844;8.120;2023-08-08T10:43:30;99264.31;;;18.17;59.05
8039;BME280;4062;49.844;8.120;2023-08-08T10:45:32;99263.47;;;18.17;59.08
8039;BME280;4062;49.844;8.120;2023-08-08T10:47:36;99258.97;;;18.17;59.10
8039;BME280;4062;49.844;8.120;2023-08-08T10:49:38;99261.63;;;18.17;59.18
8039;BME280;4062;49.844;8.120;2023-08-08T10:51:42;99258.97;;;18.17;58.97
8039;BME280;4062;49.844;8.120;2023-08-08T10:53:45;99253.63;;;18.17;59.10
8039;BME280;4062;49.844;8.120;2023-08-08T10:55:47;99253.63;;;18.17;59.09
8039;BME280;4062;49.844;8.120;2023-08-08T10:57:58;99242.94;;;18.17;58.83
8039;BME280;4062;49.844;8.120;2023-08-08T11:00:22;99246.47;;;18.18;58.84
8039;BME280;4062;49.844;8.120;2023-08-08T11:02:23;99250.09;;;18.17;58.92
8039;BME280;4062;49.844;8.120;2023-08-08T11:04:25;99249.16;;;18.18;58.85
8039;BME280;4062;49.844;8.120;2023-08-08T11:06:27;99250.00;;;18.18;58.96
8039;BME280;4062;49.844;8.120;2023-08-08T11:08:31;99251.81;;;18.18;59.01
8039;BME280;4062;49.844;8.120;2023-08-08T11:10:37;99258.13;;;18.17;59.17
8039;BME280;4062;49.844;8.120;2023-08-08T11:12:58;99257.16;;;18.18;58.85